createdAt,value
2022-11-14T00:01:33.688Z,7.10
2022-11-14T00:04:20.200Z,7.10
2022-11-14T00:07:06.784Z,7.20
2022-11-14T00:09:53.393Z,7.20
2022-11-14T00:12:39.939Z,7.20
2022-11-14T00:15:26.460Z,7.10
2022-11-14T00:18:12.934Z,7.10
2022-11-14T00:20:59.484Z,7.20
2022-11-14T00:23:46.025Z,7.20
2022-11-14T00:26:32.501Z,7.30
2022-11-14T00:29:19.047Z,7.30
2022-11-14T00:32:05.565Z,7.40
2022-11-14T00:34:52.074Z,7.40
2022-11-14T00:37:38.564Z,7.50
2022-11-14T00:40:25.079Z,7.50
2022-11-14T00:43:11.595Z,7.50
2022-11-14T00:45:58.160Z,7.50
2022-11-14T00:48:44.681Z,7.50
2022-11-14T00:51:31.216Z,7.40
2022-11-14T00:54:17.739Z,7.40
2022-11-14T00:57:04.281Z,7.40
2022-11-14T00:59:50.767Z,7.40
2022-11-14T01:02:37.271Z,7.50
2022-11-14T01:05:23.735Z,7.40
2022-11-14T01:08:10.279Z,7.30
2022-11-14T01:10:56.758Z,7.20
2022-11-14T01:13:43.306Z,7.30
2022-11-14T01:16:29.772Z,7.20
2022-11-14T01:19:16.304Z,7.20
2022-11-14T01:22:06.118Z,7.20
2022-11-14T01:24:53.240Z,7.20
2022-11-14T01:27:39.720Z,7.30
2022-11-14T01:30:26.273Z,7.30
2022-11-14T01:33:12.881Z,7.20
2022-11-14T01:35:59.362Z,7.30
2022-11-14T01:38:45.895Z,7.30
2022-11-14T01:41:32.372Z,7.30
2022-11-14T01:44:18.933Z,7.30
2022-11-14T01:47:05.417Z,7.20
2022-11-14T01:49:51.985Z,7.20
2022-11-14T01:52:38.456Z,7.20
2022-11-14T01:55:24.969Z,7.10
2022-11-14T01:58:11.487Z,7.00
2022-11-14T02:00:58.069Z,7.00
2022-11-14T02:03:44.606Z,6.90
2022-11-14T02:06:31.100Z,6.90
2022-11-14T02:09:17.581Z,6.90
2022-11-14T02:12:04.143Z,6.80
2022-11-14T02:14:50.620Z,6.70
2022-11-14T02:17:37.112Z,6.70
2022-11-14T02:20:23.592Z,6.60
2022-11-14T02:23:10.121Z,6.50
2022-11-14T02:25:56.599Z,6.40
2022-11-14T02:28:43.161Z,6.50
2022-11-14T02:31:29.644Z,6.60
2022-11-14T02:34:16.157Z,6.60
2022-11-14T02:37:02.692Z,6.60
2022-11-14T02:39:49.244Z,6.60
2022-11-14T02:42:35.754Z,6.50
2022-11-14T02:45:22.268Z,6.60
2022-11-14T02:48:08.796Z,6.60
2022-11-14T02:50:55.353Z,6.60
2022-11-14T02:53:41.843Z,6.60
2022-11-14T02:56:28.352Z,6.70
2022-11-14T02:59:14.828Z,6.80
2022-11-14T03:02:01.432Z,6.80
2022-11-14T03:04:48.019Z,6.90
2022-11-14T03:07:34.559Z,6.90
2022-11-14T03:10:21.158Z,7.00
2022-11-14T03:13:07.636Z,7.10
2022-11-14T03:15:54.184Z,7.10
2022-11-14T03:18:40.717Z,7.20
2022-11-14T03:21:27.292Z,7.30
2022-11-14T03:24:13.772Z,7.30
2022-11-14T03:27:00.302Z,7.40
2022-11-14T03:29:46.825Z,7.50
2022-11-14T03:32:33.316Z,7.50
2022-11-14T03:35:19.791Z,7.50
2022-11-14T03:38:06.349Z,7.40
2022-11-14T03:40:52.874Z,7.40
2022-11-14T03:43:39.521Z,7.40
2022-11-14T03:46:26.085Z,7.40
2022-11-14T03:49:12.596Z,7.40
2022-11-14T03:51:59.149Z,7.40
2022-11-14T03:54:45.664Z,7.40
2022-11-14T03:57:32.239Z,7.40
2022-11-14T04:00:18.782Z,7.50
2022-11-14T04:03:05.321Z,7.50
2022-11-14T04:05:51.788Z,7.50
2022-11-14T04:08:38.354Z,7.50
2022-11-14T04:11:24.853Z,7.50
2022-11-14T04:14:11.386Z,7.50
2022-11-14T04:16:57.861Z,7.50
2022-11-14T04:19:44.420Z,7.50
2022-11-14T04:22:30.902Z,7.50
2022-11-14T04:25:17.406Z,7.60
2022-11-14T04:28:03.926Z,7.60
2022-11-14T04:30:50.486Z,7.60
2022-11-14T04:33:36.981Z,7.60
2022-11-14T04:36:23.469Z,7.70
2022-11-14T04:39:09.992Z,7.60
2022-11-14T04:41:56.499Z,7.60
2022-11-14T04:44:43.219Z,7.70
2022-11-14T04:47:29.788Z,7.70
2022-11-14T04:50:16.343Z,7.70
2022-11-14T04:53:02.866Z,7.70
2022-11-14T04:55:49.394Z,7.70
2022-11-14T04:58:35.867Z,7.80
2022-11-14T05:01:22.451Z,7.80
2022-11-14T05:04:09.035Z,7.80
2022-11-14T05:06:55.609Z,7.80
2022-11-14T05:09:42.188Z,7.70
2022-11-14T05:12:28.739Z,7.70
2022-11-14T05:15:15.248Z,7.70
2022-11-14T05:18:01.728Z,7.70
2022-11-14T05:20:48.279Z,7.70
2022-11-14T05:23:34.772Z,7.70
2022-11-14T05:26:21.329Z,7.70
2022-11-14T05:29:07.894Z,7.70
2022-11-14T05:31:54.634Z,7.70
2022-11-14T05:34:41.216Z,7.70
2022-11-14T05:37:27.752Z,7.70
2022-11-14T05:40:14.253Z,7.70
2022-11-14T05:43:00.760Z,7.70
2022-11-14T05:45:47.267Z,7.70
2022-11-14T05:48:33.872Z,7.60
2022-11-14T05:51:20.424Z,7.60
2022-11-14T05:54:07.073Z,7.60
2022-11-14T05:56:53.548Z,7.50
2022-11-14T05:59:40.108Z,7.50
2022-11-14T06:02:26.887Z,7.50
2022-11-14T06:05:13.392Z,7.50
2022-11-14T06:07:59.871Z,7.40
2022-11-14T06:10:46.435Z,7.40
2022-11-14T06:13:32.927Z,7.50
2022-11-14T06:16:19.541Z,7.50
2022-11-14T06:19:06.056Z,7.50
2022-11-14T06:21:52.575Z,7.60
2022-11-14T06:24:39.065Z,7.60
2022-11-14T06:27:25.565Z,7.60
2022-11-14T06:30:12.044Z,7.60
2022-11-14T06:32:58.596Z,7.70
2022-11-14T06:35:45.073Z,7.70
2022-11-14T06:38:31.871Z,7.80
2022-11-14T06:41:18.626Z,7.70
2022-11-14T06:44:05.159Z,7.70
2022-11-14T06:46:51.688Z,7.70
2022-11-14T06:49:40.615Z,7.70
2022-11-14T06:52:27.565Z,7.70
2022-11-14T06:55:14.044Z,7.70
2022-11-14T06:58:00.609Z,7.80
2022-11-14T07:00:47.085Z,7.80
2022-11-14T07:03:33.622Z,7.80
2022-11-14T07:06:20.155Z,7.80
2022-11-14T07:09:06.670Z,7.80
2022-11-14T07:11:53.154Z,7.90
2022-11-14T07:14:39.737Z,7.90
2022-11-14T07:17:30.976Z,7.90
2022-11-14T07:20:17.968Z,8.00
2022-11-14T07:23:04.484Z,8.10
2022-11-14T07:25:50.991Z,8.10
2022-11-14T07:28:37.484Z,8.10
2022-11-14T07:31:24.465Z,8.10
2022-11-14T07:34:10.982Z,8.20
2022-11-14T07:36:57.495Z,8.20
2022-11-14T07:39:43.968Z,8.20
2022-11-14T07:42:30.484Z,8.30
2022-11-14T07:45:16.960Z,8.40
2022-11-14T07:48:03.474Z,8.40
2022-11-14T07:50:49.944Z,8.50
2022-11-14T07:53:36.452Z,8.50
2022-11-14T07:56:22.967Z,8.60
2022-11-14T07:59:09.495Z,8.60
2022-11-14T08:01:55.979Z,8.70
2022-11-14T08:04:42.469Z,8.70
2022-11-14T08:07:29.013Z,8.80
2022-11-14T08:10:15.549Z,8.80
2022-11-14T08:13:25.264Z,8.90
2022-11-14T08:16:12.830Z,8.90
2022-11-14T08:19:00.124Z,9.00
2022-11-14T08:21:46.628Z,9.10
2022-11-14T08:24:33.120Z,9.10
2022-11-14T08:27:19.686Z,9.20
2022-11-14T08:30:06.177Z,9.20
2022-11-14T08:32:52.743Z,9.30
2022-11-14T08:35:39.536Z,9.40
2022-11-14T08:38:26.412Z,9.40
2022-11-14T08:41:12.968Z,9.40
2022-11-14T08:43:59.446Z,9.50
2022-11-14T08:46:45.974Z,9.50
2022-11-14T08:49:32.489Z,9.60
2022-11-14T08:52:19.033Z,9.60
2022-11-14T08:55:05.794Z,9.70
2022-11-14T08:57:52.325Z,9.70
2022-11-14T09:00:38.873Z,9.80
2022-11-14T09:03:25.467Z,9.80
2022-11-14T09:06:12.098Z,9.90
2022-11-14T09:08:58.571Z,9.90
2022-11-14T09:11:45.238Z,9.90
2022-11-14T09:14:31.734Z,10.00
2022-11-14T09:17:18.285Z,10.10
2022-11-14T09:20:04.851Z,10.10
2022-11-14T09:22:51.434Z,10.10
2022-11-14T09:25:37.997Z,10.10
2022-11-14T09:28:24.487Z,10.20
2022-11-14T09:31:10.992Z,10.20
2022-11-14T09:33:57.473Z,10.30
2022-11-14T09:36:44.005Z,10.30
2022-11-14T09:39:30.519Z,10.40
2022-11-14T09:42:17.604Z,10.40
2022-11-14T09:45:04.215Z,10.40
2022-11-14T09:47:50.793Z,10.50
2022-11-14T09:50:37.300Z,10.50
2022-11-14T09:53:23.857Z,10.60
2022-11-14T09:56:10.336Z,10.70
2022-11-14T09:58:56.879Z,10.70
2022-11-14T10:01:43.484Z,10.80
2022-11-14T10:04:29.999Z,10.90
2022-11-14T10:07:16.617Z,11.00
2022-11-14T10:10:03.143Z,11.10
2022-11-14T10:12:49.649Z,11.10
2022-11-14T10:15:36.191Z,11.10
2022-11-14T10:18:22.721Z,11.20
2022-11-14T10:21:09.250Z,11.20
2022-11-14T10:23:55.806Z,11.30
2022-11-14T10:26:42.330Z,11.30
2022-11-14T10:29:28.839Z,11.40
2022-11-14T10:32:15.317Z,11.50
2022-11-14T10:35:01.876Z,11.50
2022-11-14T10:37:48.354Z,11.60
2022-11-14T10:40:34.848Z,11.70
2022-11-14T10:43:21.374Z,11.70
2022-11-14T10:46:07.939Z,11.80
2022-11-14T10:48:59.009Z,11.80
2022-11-14T10:51:46.646Z,11.80
2022-11-14T10:54:33.131Z,11.80
2022-11-14T10:57:19.640Z,11.90
2022-11-14T11:00:06.175Z,11.90
2022-11-14T11:02:52.677Z,12.10
2022-11-14T11:05:39.190Z,12.30
2022-11-14T11:08:42.745Z,12.40
2022-11-14T11:11:30.489Z,12.50
2022-11-14T11:14:17.016Z,12.60
2022-11-14T11:17:03.561Z,12.70
2022-11-14T11:19:50.159Z,12.80
2022-11-14T11:22:36.754Z,12.90
2022-11-14T11:25:23.241Z,13.00
2022-11-14T11:28:09.835Z,13.10
2022-11-14T11:30:56.380Z,13.20
2022-11-14T11:33:42.856Z,13.30
2022-11-14T11:36:29.401Z,13.50
2022-11-14T11:39:15.894Z,13.60
2022-11-14T11:42:08.869Z,13.70
2022-11-14T11:44:56.517Z,13.70
2022-11-14T11:47:44.465Z,13.70
2022-11-14T11:50:31.008Z,13.70
2022-11-14T11:53:17.601Z,13.70
2022-11-14T11:56:04.122Z,13.60
2022-11-14T11:58:50.647Z,13.50
2022-11-14T12:01:37.193Z,13.40
2022-11-14T12:04:23.701Z,13.30
2022-11-14T12:07:10.282Z,13.40
2022-11-14T12:10:10.350Z,13.50
2022-11-14T12:12:57.343Z,13.80
2022-11-14T12:15:43.927Z,14.00
2022-11-14T12:18:30.441Z,14.20
2022-11-14T12:21:16.934Z,14.10
2022-11-14T12:24:03.473Z,14.10
2022-11-14T12:26:49.955Z,14.00
2022-11-14T12:29:36.463Z,13.80
2022-11-14T12:32:22.963Z,13.70
2022-11-14T12:35:09.529Z,13.80
2022-11-14T12:37:56.343Z,13.80
2022-11-14T12:40:42.901Z,13.70
2022-11-14T12:43:34.783Z,13.70
2022-11-14T12:46:22.734Z,13.80
2022-11-14T12:49:09.313Z,13.80
2022-11-14T12:51:55.833Z,13.90
2022-11-14T12:54:42.352Z,13.90
2022-11-14T12:57:28.837Z,13.90
2022-11-14T13:00:15.459Z,13.90
2022-11-14T13:03:01.946Z,13.90
2022-11-14T13:05:48.437Z,13.90
2022-11-14T13:08:34.951Z,14.00
2022-11-14T13:11:21.509Z,13.80
2022-11-14T13:14:08.058Z,13.70
2022-11-14T13:16:54.556Z,13.70
2022-11-14T13:19:41.034Z,13.60
2022-11-14T13:22:27.535Z,13.40
2022-11-14T13:25:14.008Z,13.30
2022-11-14T13:28:08.001Z,13.20
2022-11-14T13:30:55.509Z,13.20
2022-11-14T13:33:42.019Z,13.20
2022-11-14T13:36:28.508Z,13.20
2022-11-14T13:39:15.335Z,13.10
2022-11-14T13:42:01.876Z,13.10
2022-11-14T13:44:48.367Z,13.00
2022-11-14T13:47:34.921Z,13.00
2022-11-14T13:50:21.410Z,12.80
2022-11-14T13:53:07.941Z,12.70
2022-11-14T13:55:54.468Z,12.60
2022-11-14T13:58:40.982Z,12.60
2022-11-14T14:01:27.558Z,12.60
2022-11-14T14:04:14.118Z,12.50
2022-11-14T14:07:00.686Z,12.50
2022-11-14T14:09:47.200Z,12.60
2022-11-14T14:12:33.720Z,12.50
2022-11-14T14:15:20.461Z,12.40
2022-11-14T14:18:07.006Z,12.40
2022-11-14T14:20:53.640Z,12.40
2022-11-14T14:23:40.165Z,12.40
2022-11-14T14:26:26.679Z,12.30
2022-11-14T14:29:13.197Z,12.30
2022-11-14T14:31:59.675Z,12.20
2022-11-14T14:34:46.233Z,12.10
2022-11-14T14:37:32.726Z,12.00
2022-11-14T14:40:19.239Z,11.90
2022-11-14T14:43:05.750Z,11.90
2022-11-14T14:45:52.277Z,11.80
2022-11-14T14:48:38.760Z,11.70
2022-11-14T14:51:25.270Z,11.60
2022-11-14T14:54:11.737Z,11.50
2022-11-14T14:56:58.259Z,11.40
2022-11-14T14:59:44.758Z,11.20
2022-11-14T15:02:31.425Z,11.10
2022-11-14T15:05:17.914Z,10.90
2022-11-14T15:08:04.459Z,10.80
2022-11-14T15:10:50.968Z,10.70
2022-11-14T15:13:37.535Z,10.70
2022-11-14T15:16:24.016Z,10.70
2022-11-14T15:19:10.547Z,10.60
2022-11-14T15:21:57.028Z,10.50
2022-11-14T15:24:43.590Z,10.30
2022-11-14T15:27:30.063Z,10.10
2022-11-14T15:30:16.570Z,10.00
2022-11-14T15:33:03.068Z,10.00
2022-11-14T15:35:49.592Z,9.90
2022-11-14T15:38:54.198Z,9.70
2022-11-14T15:41:40.923Z,9.60
2022-11-14T15:44:27.405Z,9.50
2022-11-14T15:47:13.937Z,9.30
2022-11-14T15:50:01.789Z,9.10
2022-11-14T15:52:48.343Z,8.90
2022-11-14T15:55:34.851Z,8.80
2022-11-14T15:58:28.288Z,8.70
2022-11-14T16:01:15.666Z,8.60
2022-11-14T16:04:02.225Z,8.50
2022-11-14T16:06:48.786Z,8.40
2022-11-14T16:09:35.367Z,8.30
2022-11-14T16:12:21.884Z,8.30
2022-11-14T16:15:08.447Z,8.40
2022-11-14T16:17:54.961Z,8.20
2022-11-14T16:20:41.489Z,8.10
2022-11-14T16:23:28.251Z,8.00
2022-11-14T16:26:14.933Z,8.00
2022-11-14T16:29:01.421Z,7.90
2022-11-14T16:31:47.942Z,7.80
2022-11-14T16:34:34.524Z,7.70
2022-11-14T16:37:21.016Z,7.70
2022-11-14T16:40:07.537Z,7.70
2022-11-14T16:42:54.016Z,7.60
2022-11-14T16:45:40.516Z,7.50
2022-11-14T16:48:26.995Z,7.30
2022-11-14T16:51:40.999Z,7.00
2022-11-14T16:54:19.982Z,7.00
2022-11-14T16:57:06.464Z,7.10
2022-11-14T16:59:52.977Z,7.00
2022-11-14T17:02:39.491Z,7.00
2022-11-14T17:05:26.019Z,6.90
2022-11-14T17:08:12.540Z,6.90
2022-11-14T17:10:59.122Z,6.90
2022-11-14T17:13:45.666Z,6.60
2022-11-14T17:16:32.269Z,6.50
2022-11-14T17:19:18.869Z,6.40
2022-11-14T17:22:05.367Z,6.40
2022-11-14T17:24:51.905Z,6.40
2022-11-14T17:27:38.384Z,6.40
2022-11-14T17:30:24.906Z,6.50
2022-11-14T17:33:11.389Z,6.40
2022-11-14T17:35:57.906Z,6.30
2022-11-14T17:38:44.429Z,6.20
2022-11-14T17:41:30.959Z,6.30
2022-11-14T17:44:17.448Z,6.10
2022-11-14T17:47:04.029Z,6.10
2022-11-14T17:49:50.497Z,6.10
2022-11-14T17:52:37.074Z,6.10
2022-11-14T17:55:23.562Z,6.10
2022-11-14T17:58:10.129Z,5.90
2022-11-14T18:00:56.664Z,5.80
2022-11-14T18:03:43.168Z,5.60
2022-11-14T18:06:29.649Z,5.40
2022-11-14T18:09:16.171Z,5.50
2022-11-14T18:12:02.655Z,5.50
2022-11-14T18:14:49.165Z,5.50
2022-11-14T18:17:35.697Z,5.50
2022-11-14T18:20:22.197Z,5.60
2022-11-14T18:23:08.729Z,5.60
2022-11-14T18:25:55.217Z,5.50
2022-11-14T18:28:41.777Z,5.40
2022-11-14T18:31:28.243Z,5.20
2022-11-14T18:34:14.761Z,5.20
2022-11-14T18:37:01.300Z,5.10
2022-11-14T18:39:47.828Z,5.00
2022-11-14T18:42:34.336Z,5.00
2022-11-14T18:45:20.886Z,4.90
2022-11-14T18:48:07.377Z,4.80
2022-11-14T18:50:53.888Z,4.80
2022-11-14T18:53:40.383Z,4.80
2022-11-14T18:56:26.898Z,4.80
2022-11-14T18:59:13.375Z,4.70
2022-11-14T19:01:59.953Z,4.70
2022-11-14T19:04:46.453Z,4.60
2022-11-14T19:07:33.023Z,4.60
2022-11-14T19:10:19.533Z,4.60
2022-11-14T19:13:06.050Z,4.60
2022-11-14T19:15:52.588Z,4.40
2022-11-14T19:18:39.085Z,4.40
2022-11-14T19:21:25.571Z,4.40
2022-11-14T19:24:12.083Z,4.40
2022-11-14T19:26:58.664Z,4.20
2022-11-14T19:29:45.160Z,4.10
2022-11-14T19:32:31.829Z,4.10
2022-11-14T19:35:20.646Z,4.10
2022-11-14T19:38:07.350Z,4.10
2022-11-14T19:40:53.840Z,4.20
2022-11-14T19:43:40.332Z,4.20
2022-11-14T19:46:26.859Z,4.20
2022-11-14T19:49:13.409Z,4.20
2022-11-14T19:51:59.963Z,4.20
2022-11-14T19:54:46.508Z,4.10
2022-11-14T19:57:33.100Z,4.10
2022-11-14T20:00:19.615Z,4.10
2022-11-14T20:03:06.180Z,4.00
2022-11-14T20:05:52.687Z,4.00
2022-11-14T20:08:39.231Z,3.90
2022-11-14T20:11:25.720Z,3.90
2022-11-14T20:14:12.240Z,3.80
2022-11-14T20:16:58.721Z,3.80
2022-11-14T20:19:45.231Z,3.80
2022-11-14T20:22:31.707Z,3.80
2022-11-14T20:25:18.205Z,3.70
2022-11-14T20:28:04.728Z,3.70
2022-11-14T20:30:51.243Z,3.70
2022-11-14T20:33:37.764Z,3.70
2022-11-14T20:36:24.302Z,3.60
2022-11-14T20:39:10.773Z,3.60
2022-11-14T20:41:57.293Z,3.60
2022-11-14T20:44:43.773Z,3.50
2022-11-14T20:47:30.323Z,3.50
2022-11-14T20:50:16.860Z,3.50
2022-11-14T20:53:03.398Z,3.40
2022-11-14T20:55:49.957Z,3.50
2022-11-14T20:58:36.469Z,3.40
2022-11-14T21:01:23.116Z,3.40
2022-11-14T21:04:09.613Z,3.40
2022-11-14T21:06:56.159Z,3.40
2022-11-14T21:09:42.688Z,3.30
2022-11-14T21:12:29.181Z,3.30
2022-11-14T21:15:15.719Z,3.20
2022-11-14T21:18:02.230Z,3.30
2022-11-14T21:20:48.776Z,3.20
2022-11-14T21:23:35.257Z,3.20
2022-11-14T21:26:21.892Z,3.10
2022-11-14T21:29:08.369Z,3.10
2022-11-14T21:31:54.876Z,3.10
2022-11-14T21:34:41.345Z,3.00
2022-11-14T21:37:27.875Z,3.00
2022-11-14T21:40:14.368Z,2.90
2022-11-14T21:43:00.835Z,2.80
2022-11-14T21:45:47.342Z,2.80
2022-11-14T21:48:37.495Z,2.70
2022-11-14T21:51:27.691Z,2.60
2022-11-14T21:54:14.239Z,2.60
2022-11-14T21:57:04.263Z,2.60
2022-11-14T21:59:53.489Z,2.70
2022-11-14T22:02:40.009Z,2.70
2022-11-14T22:05:26.544Z,2.70
2022-11-14T22:08:13.064Z,2.70
2022-11-14T22:10:59.624Z,2.70
2022-11-14T22:13:46.121Z,2.70
2022-11-14T22:16:32.617Z,2.60
2022-11-14T22:19:19.176Z,2.60
2022-11-14T22:22:05.695Z,2.60
2022-11-14T22:24:52.235Z,2.60
2022-11-14T22:27:38.919Z,2.60
2022-11-14T22:30:25.409Z,2.60
2022-11-14T22:33:11.966Z,2.60
2022-11-14T22:35:58.464Z,2.50
2022-11-14T22:38:44.987Z,2.50
2022-11-14T22:41:33.024Z,2.50
2022-11-14T22:44:19.904Z,2.40
2022-11-14T22:47:06.418Z,2.40
2022-11-14T22:49:52.927Z,2.40
2022-11-14T22:52:39.454Z,2.40
2022-11-14T22:55:26.069Z,2.30
2022-11-14T22:58:12.621Z,2.30
2022-11-14T23:00:59.144Z,2.20
2022-11-14T23:03:45.673Z,2.20
2022-11-14T23:06:32.254Z,2.20
2022-11-14T23:09:18.749Z,2.20
2022-11-14T23:12:05.227Z,2.10
2022-11-14T23:14:51.776Z,2.00
2022-11-14T23:17:38.258Z,2.00
2022-11-14T23:20:24.793Z,2.00
2022-11-14T23:23:11.339Z,2.00
2022-11-14T23:25:57.820Z,2.00
2022-11-14T23:28:44.336Z,2.00
2022-11-14T23:31:30.811Z,2.00
2022-11-14T23:34:17.356Z,2.00
2022-11-14T23:37:03.887Z,2.00
2022-11-14T23:39:50.460Z,1.90
2022-11-14T23:42:36.932Z,1.80
2022-11-14T23:45:23.548Z,1.80
2022-11-14T23:48:10.033Z,1.90
2022-11-14T23:50:56.580Z,1.90
2022-11-14T23:53:43.061Z,1.90
2022-11-14T23:56:29.580Z,1.90
2022-11-14T23:59:16.066Z,1.80
